sensor_id;sensor_type;location;lat;lon;timestamp;pressure;altitude;pressure_sealevel;temperature;humidity
61898;BME280;47850;50.274;18.908;2022-07-29T00:00:48;98389.75;;;17.06;57.59
61898;BME280;47850;50.274;18.908;2022-07-29T00:03:14;98387.05;;;17.05;57.63
61898;BME280;47850;50.274;18.908;2022-07-29T00:05:41;98387.52;;;17.05;57.77
61898;BME280;47850;50.274;18.908;2022-07-29T00:08:08;98388.11;;;17.04;57.76
61898;BME280;47850;50.274;18.908;2022-07-29T00:10:35;98385.33;;;17.03;57.95
61898;BME280;47850;50.274;18.908;2022-07-29T00:13:02;98384.66;;;17.01;58.06
61898;BME280;47850;50.274;18.908;2022-07-29T00:15:28;98385.18;;;17.00;58.20
61898;BME280;47850;50.274;18.908;2022-07-29T00:17:55;98379.27;;;16.99;58.14
61898;BME280;47850;50.274;18.908;2022-07-29T00:20:21;98379.35;;;17.00;58.38
61898;BME280;47850;50.274;18.908;2022-07-29T00:22:48;98374.09;;;17.00;58.21
61898;BME280;47850;50.274;18.908;2022-07-29T00:25:15;98372.37;;;17.01;58.24
61898;BME280;47850;50.274;18.908;2022-07-29T00:27:41;98372.86;;;17.02;58.19
61898;BME280;47850;50.274;18.908;2022-07-29T00:30:08;98372.95;;;17.02;58.16
61898;BME280;47850;50.274;18.908;2022-07-29T00:32:35;98373.09;;;17.02;58.03
61898;BME280;47850;50.274;18.908;2022-07-29T00:35:01;98369.30;;;17.00;57.93
61898;BME280;47850;50.274;18.908;2022-07-29T00:37:46;98369.30;;;16.97;57.75
61898;BME280;47850;50.274;18.908;2022-07-29T00:40:13;98367.73;;;16.95;57.78
61898;BME280;47850;50.274;18.908;2022-07-29T00:42:48;98369.96;;;16.92;57.61
61898;BME280;47850;50.274;18.908;2022-07-29T00:45:15;98368.76;;;16.92;57.62
61898;BME280;47850;50.274;18.908;2022-07-29T00:47:42;98363.75;;;16.90;57.36
61898;BME280;47850;50.274;18.908;2022-07-29T00:50:10;98365.39;;;16.89;57.32
61898;BME280;47850;50.274;18.908;2022-07-29T00:52:39;98363.46;;;16.88;57.08
61898;BME280;47850;50.274;18.908;2022-07-29T00:55:09;98365.69;;;16.86;57.00
61898;BME280;47850;50.274;18.908;2022-07-29T00:57:36;98357.61;;;16.83;56.65
61898;BME280;47850;50.274;18.908;2022-07-29T01:00:06;98359.41;;;16.80;56.40
61898;BME280;47850;50.274;18.908;2022-07-29T01:02:33;98356.95;;;16.77;56.39
61898;BME280;47850;50.274;18.908;2022-07-29T01:05:02;98353.80;;;16.75;56.35
61898;BME280;47850;50.274;18.908;2022-07-29T01:07:30;98348.33;;;16.73;56.10
61898;BME280;47850;50.274;18.908;2022-07-29T01:09:58;98345.05;;;16.71;56.05
61898;BME280;47850;50.274;18.908;2022-07-29T01:12:26;98344.72;;;16.71;55.94
61898;BME280;47850;50.274;18.908;2022-07-29T01:14:55;98346.87;;;16.69;55.76
61898;BME280;47850;50.274;18.908;2022-07-29T01:30:58;98346.22;;;16.52;55.51
61898;BME280;47850;50.274;18.908;2022-07-29T01:33:27;98346.55;;;16.53;55.35
61898;BME280;47850;50.274;18.908;2022-07-29T01:36:17;98343.92;;;16.52;55.26
61898;BME280;47850;50.274;18.908;2022-07-29T01:38:53;98343.58;;;16.50;55.17
61898;BME280;47850;50.274;18.908;2022-07-29T01:41:22;98340.95;;;16.49;55.06
61898;BME280;47850;50.274;18.908;2022-07-29T01:44:15;98338.02;;;16.48;54.80
61898;BME280;47850;50.274;18.908;2022-07-29T01:46:49;98339.44;;;16.48;54.64
61898;BME280;47850;50.274;18.908;2022-07-29T01:49:21;98339.02;;;16.47;54.79
61898;BME280;47850;50.274;18.908;2022-07-29T01:51:59;98338.88;;;16.47;54.63
61898;BME280;47850;50.274;18.908;2022-07-29T01:54:46;98335.64;;;16.47;54.52
61898;BME280;47850;50.274;18.908;2022-07-29T01:57:17;98330.03;;;16.46;54.34
61898;BME280;47850;50.274;18.908;2022-07-29T01:59:46;98325.86;;;16.46;54.19
61898;BME280;47850;50.274;18.908;2022-07-29T02:02:15;98324.69;;;16.46;53.98
61898;BME280;47850;50.274;18.908;2022-07-29T02:04:44;98322.71;;;16.46;53.86
61898;BME280;47850;50.274;18.908;2022-07-29T02:07:18;98321.87;;;16.44;53.95
61898;BME280;47850;50.274;18.908;2022-07-29T02:09:47;98326.45;;;16.41;53.74
61898;BME280;47850;50.274;18.908;2022-07-29T02:12:18;98326.75;;;16.40;53.66
61898;BME280;47850;50.274;18.908;2022-07-29T02:14:48;98323.21;;;16.40;53.60
61898;BME280;47850;50.274;18.908;2022-07-29T02:17:21;98325.60;;;16.42;53.44
61898;BME280;47850;50.274;18.908;2022-07-29T02:19:49;98323.11;;;16.43;53.13
61898;BME280;47850;50.274;18.908;2022-07-29T02:22:18;98318.34;;;16.44;53.14
61898;BME280;47850;50.274;18.908;2022-07-29T02:24:46;98321.19;;;16.45;53.21
61898;BME280;47850;50.274;18.908;2022-07-29T02:27:15;98320.67;;;16.46;53.16
61898;BME280;47850;50.274;18.908;2022-07-29T02:29:45;98320.23;;;16.47;53.10
61898;BME280;47850;50.274;18.908;2022-07-29T02:32:13;98311.48;;;16.47;52.98
61898;BME280;47850;50.274;18.908;2022-07-29T02:34:43;98316.15;;;16.48;52.77
61898;BME280;47850;50.274;18.908;2022-07-29T02:37:11;98312.62;;;16.49;52.75
61898;BME280;47850;50.274;18.908;2022-07-29T02:39:41;98310.98;;;16.49;52.75
61898;BME280;47850;50.274;18.908;2022-07-29T02:42:12;98315.00;;;16.49;52.63
61898;BME280;47850;50.274;18.908;2022-07-29T02:44:40;98313.14;;;16.50;52.62
61898;BME280;47850;50.274;18.908;2022-07-29T02:49:37;98313.03;;;16.52;52.64
61898;BME280;47850;50.274;18.908;2022-07-29T02:52:29;98314.65;;;16.53;52.60
61898;BME280;47850;50.274;18.908;2022-07-29T02:57:44;98312.18;;;16.56;52.60
61898;BME280;47850;50.274;18.908;2022-07-29T03:00:14;98311.27;;;16.56;52.58
61898;BME280;47850;50.274;18.908;2022-07-29T03:02:44;98308.06;;;16.58;52.83
61898;BME280;47850;50.274;18.908;2022-07-29T03:05:15;98306.66;;;16.58;52.72
61898;BME280;47850;50.274;18.908;2022-07-29T03:07:48;98302.16;;;16.58;52.72
61898;BME280;47850;50.274;18.908;2022-07-29T03:10:15;98297.29;;;16.57;52.65
61898;BME280;47850;50.274;18.908;2022-07-29T03:12:43;98297.21;;;16.58;52.72
61898;BME280;47850;50.274;18.908;2022-07-29T03:15:10;98300.19;;;16.58;52.82
61898;BME280;47850;50.274;18.908;2022-07-29T03:17:38;98298.86;;;16.58;52.83
61898;BME280;47850;50.274;18.908;2022-07-29T03:20:07;98297.25;;;16.59;52.92
61898;BME280;47850;50.274;18.908;2022-07-29T03:22:41;98298.16;;;16.62;52.84
61898;BME280;47850;50.274;18.908;2022-07-29T03:25:18;98300.90;;;16.64;53.02
61898;BME280;47850;50.274;18.908;2022-07-29T03:27:46;98299.59;;;16.66;52.99
61898;BME280;47850;50.274;18.908;2022-07-29T03:30:14;98299.04;;;16.66;52.84
61898;BME280;47850;50.274;18.908;2022-07-29T03:32:42;98295.33;;;16.68;52.79
61898;BME280;47850;50.274;18.908;2022-07-29T03:35:08;98295.39;;;16.71;52.97
61898;BME280;47850;50.274;18.908;2022-07-29T03:37:35;98300.19;;;16.74;52.85
61898;BME280;47850;50.274;18.908;2022-07-29T03:40:08;98299.39;;;16.77;52.89
61898;BME280;47850;50.274;18.908;2022-07-29T03:42:39;98301.25;;;16.80;52.85
61898;BME280;47850;50.274;18.908;2022-07-29T03:45:09;98301.15;;;16.82;52.94
61898;BME280;47850;50.274;18.908;2022-07-29T03:47:40;98296.35;;;16.82;52.97
61898;BME280;47850;50.274;18.908;2022-07-29T03:50:11;98295.85;;;16.84;52.97
61898;BME280;47850;50.274;18.908;2022-07-29T03:52:38;98289.88;;;16.84;52.92
61898;BME280;47850;50.274;18.908;2022-07-29T03:55:06;98293.81;;;16.85;52.92
61898;BME280;47850;50.274;18.908;2022-07-29T03:57:34;98295.30;;;16.88;52.96
61898;BME280;47850;50.274;18.908;2022-07-29T04:00:03;98291.11;;;16.90;52.81
61898;BME280;47850;50.274;18.908;2022-07-29T04:02:32;98295.50;;;16.95;52.90
61898;BME280;47850;50.274;18.908;2022-07-29T04:04:59;98298.86;;;17.01;52.94
61898;BME280;47850;50.274;18.908;2022-07-29T04:07:26;98301.42;;;17.07;52.98
61898;BME280;47850;50.274;18.908;2022-07-29T04:09:52;98301.63;;;17.12;52.83
61898;BME280;47850;50.274;18.908;2022-07-29T04:12:19;98307.73;;;17.17;52.81
61898;BME280;47850;50.274;18.908;2022-07-29T04:14:47;98306.58;;;17.22;52.86
61898;BME280;47850;50.274;18.908;2022-07-29T04:17:14;98305.25;;;17.27;52.80
61898;BME280;47850;50.274;18.908;2022-07-29T04:19:41;98307.86;;;17.34;52.70
61898;BME280;47850;50.274;18.908;2022-07-29T04:22:07;98306.30;;;17.39;52.86
61898;BME280;47850;50.274;18.908;2022-07-29T04:24:34;98306.39;;;17.44;52.77
61898;BME280;47850;50.274;18.908;2022-07-29T04:27:00;98308.14;;;17.49;52.71
61898;BME280;47850;50.274;18.908;2022-07-29T04:29:27;98309.83;;;17.54;52.51
61898;BME280;47850;50.274;18.908;2022-07-29T04:31:53;98314.33;;;17.58;52.58
61898;BME280;47850;50.274;18.908;2022-07-29T04:34:20;98311.64;;;17.61;52.63
61898;BME280;47850;50.274;18.908;2022-07-29T04:36:47;98312.42;;;17.66;52.66
61898;BME280;47850;50.274;18.908;2022-07-29T04:39:13;98303.34;;;17.68;52.58
61898;BME280;47850;50.274;18.908;2022-07-29T04:41:40;98299.72;;;17.68;52.61
61898;BME280;47850;50.274;18.908;2022-07-29T04:44:06;98296.45;;;17.66;52.60
61898;BME280;47850;50.274;18.908;2022-07-29T04:46:33;98292.04;;;17.65;52.67
61898;BME280;47850;50.274;18.908;2022-07-29T04:49:00;98290.73;;;17.63;52.77
61898;BME280;47850;50.274;18.908;2022-07-29T04:51:27;98288.59;;;17.59;52.92
61898;BME280;47850;50.274;18.908;2022-07-29T04:53:53;98291.66;;;17.56;53.18
61898;BME280;47850;50.274;18.908;2022-07-29T04:56:20;98296.48;;;17.51;53.34
61898;BME280;47850;50.274;18.908;2022-07-29T04:58:46;98293.86;;;17.51;53.45
61898;BME280;47850;50.274;18.908;2022-07-29T05:01:13;98294.42;;;17.52;53.55
61898;BME280;47850;50.274;18.908;2022-07-29T05:03:40;98299.34;;;17.53;53.54
61898;BME280;47850;50.274;18.908;2022-07-29T05:06:07;98297.73;;;17.56;53.68
61898;BME280;47850;50.274;18.908;2022-07-29T05:08:33;98298.20;;;17.59;53.67
61898;BME280;47850;50.274;18.908;2022-07-29T05:11:00;98293.73;;;17.64;53.73
61898;BME280;47850;50.274;18.908;2022-07-29T05:13:27;98292.98;;;17.70;53.72
61898;BME280;47850;50.274;18.908;2022-07-29T05:15:54;98297.58;;;17.76;53.79
61898;BME280;47850;50.274;18.908;2022-07-29T05:18:20;98295.27;;;17.79;53.82
61898;BME280;47850;50.274;18.908;2022-07-29T05:20:47;98294.08;;;17.82;53.76
61898;BME280;47850;50.274;18.908;2022-07-29T05:23:13;98293.57;;;17.84;53.64
61898;BME280;47850;50.274;18.908;2022-07-29T05:25:40;98291.77;;;17.89;53.86
61898;BME280;47850;50.274;18.908;2022-07-29T05:28:07;98287.90;;;17.93;54.05
61898;BME280;47850;50.274;18.908;2022-07-29T05:30:33;98290.42;;;17.96;53.93
61898;BME280;47850;50.274;18.908;2022-07-29T05:33:00;98290.66;;;18.00;54.16
61898;BME280;47850;50.274;18.908;2022-07-29T05:35:27;98289.64;;;18.05;53.98
61898;BME280;47850;50.274;18.908;2022-07-29T05:37:53;98287.54;;;18.11;54.21
61898;BME280;47850;50.274;18.908;2022-07-29T05:40:20;98288.77;;;18.18;54.25
61898;BME280;47850;50.274;18.908;2022-07-29T05:42:47;98286.50;;;18.24;54.18
61898;BME280;47850;50.274;18.908;2022-07-29T05:45:13;98286.19;;;18.29;54.25
61898;BME280;47850;50.274;18.908;2022-07-29T05:47:40;98284.19;;;18.37;54.19
61898;BME280;47850;50.274;18.908;2022-07-29T05:50:07;98282.50;;;18.44;54.32
61898;BME280;47850;50.274;18.908;2022-07-29T05:52:33;98283.17;;;18.51;54.29
61898;BME280;47850;50.274;18.908;2022-07-29T05:55:00;98285.23;;;18.57;54.11
61898;BME280;47850;50.274;18.908;2022-07-29T05:57:30;98277.73;;;18.62;54.00
61898;BME280;47850;50.274;18.908;2022-07-29T05:59:57;98276.80;;;18.68;53.97
61898;BME280;47850;50.274;18.908;2022-07-29T06:02:24;98280.37;;;18.74;53.94
61898;BME280;47850;50.274;18.908;2022-07-29T06:04:50;98287.48;;;18.80;53.97
61898;BME280;47850;50.274;18.908;2022-07-29T06:07:17;98288.80;;;18.89;53.94
61898;BME280;47850;50.274;18.908;2022-07-29T06:09:43;98286.83;;;18.98;54.27
61898;BME280;47850;50.274;18.908;2022-07-29T06:12:10;98290.66;;;19.06;54.23
61898;BME280;47850;50.274;18.908;2022-07-29T06:14:37;98287.31;;;19.16;53.95
61898;BME280;47850;50.274;18.908;2022-07-29T06:17:04;98284.59;;;19.25;53.83
61898;BME280;47850;50.274;18.908;2022-07-29T06:19:34;98288.96;;;19.34;53.61
61898;BME280;47850;50.274;18.908;2022-07-29T06:22:01;98289.38;;;19.42;53.79
61898;BME280;47850;50.274;18.908;2022-07-29T06:24:27;98288.08;;;19.52;53.98
61898;BME280;47850;50.274;18.908;2022-07-29T06:26:54;98286.30;;;19.62;53.91
61898;BME280;47850;50.274;18.908;2022-07-29T06:29:21;98282.13;;;19.69;53.61
61898;BME280;47850;50.274;18.908;2022-07-29T06:31:47;98285.16;;;19.79;53.45
61898;BME280;47850;50.274;18.908;2022-07-29T06:34:14;98290.44;;;19.90;53.36
61898;BME280;47850;50.274;18.908;2022-07-29T06:36:41;98294.29;;;20.02;53.17
61898;BME280;47850;50.274;18.908;2022-07-29T06:39:08;98295.85;;;20.18;52.92
61898;BME280;47850;50.274;18.908;2022-07-29T06:41:35;98292.77;;;20.35;52.47
61898;BME280;47850;50.274;18.908;2022-07-29T06:44:02;98291.57;;;20.52;51.99
61898;BME280;47850;50.274;18.908;2022-07-29T06:46:30;98294.80;;;20.67;51.84
61898;BME280;47850;50.274;18.908;2022-07-29T06:48:57;98293.10;;;20.81;51.69
61898;BME280;47850;50.274;18.908;2022-07-29T06:51:24;98291.52;;;20.95;51.40
61898;BME280;47850;50.274;18.908;2022-07-29T06:53:52;98284.54;;;21.06;50.84
61898;BME280;47850;50.274;18.908;2022-07-29T06:56:18;98285.80;;;21.18;50.66
61898;BME280;47850;50.274;18.908;2022-07-29T06:58:45;98284.27;;;21.28;50.73
61898;BME280;47850;50.274;18.908;2022-07-29T07:01:11;98285.66;;;21.38;50.48
61898;BME280;47850;50.274;18.908;2022-07-29T07:03:38;98289.02;;;21.46;49.85
61898;BME280;47850;50.274;18.908;2022-07-29T07:06:04;98288.04;;;21.55;50.15
61898;BME280;47850;50.274;18.908;2022-07-29T07:08:31;98291.27;;;21.62;50.17
61898;BME280;47850;50.274;18.908;2022-07-29T07:10:57;98291.11;;;21.66;49.49
61898;BME280;47850;50.274;18.908;2022-07-29T07:13:24;98295.48;;;21.70;49.41
61898;BME280;47850;50.274;18.908;2022-07-29T07:15:51;98296.40;;;21.82;49.28
61898;BME280;47850;50.274;18.908;2022-07-29T07:18:18;98295.80;;;21.92;49.30
61898;BME280;47850;50.274;18.908;2022-07-29T07:20:45;98289.80;;;22.04;49.39
61898;BME280;47850;50.274;18.908;2022-07-29T07:23:12;98288.07;;;22.17;49.45
61898;BME280;47850;50.274;18.908;2022-07-29T07:25:38;98284.20;;;22.32;49.41
61898;BME280;47850;50.274;18.908;2022-07-29T07:28:05;98282.73;;;22.49;49.50
61898;BME280;47850;50.274;18.908;2022-07-29T07:30:32;98280.58;;;22.67;49.01
61898;BME280;47850;50.274;18.908;2022-07-29T07:32:59;98282.13;;;22.90;48.21
61898;BME280;47850;50.274;18.908;2022-07-29T07:35:26;98286.14;;;23.19;47.62
61898;BME280;47850;50.274;18.908;2022-07-29T07:37:55;98279.85;;;23.48;47.23
61898;BME280;47850;50.274;18.908;2022-07-29T07:40:22;98281.32;;;23.77;46.58
61898;BME280;47850;50.274;18.908;2022-07-29T07:42:48;98282.66;;;23.97;45.93
61898;BME280;47850;50.274;18.908;2022-07-29T07:45:15;98280.11;;;24.09;45.71
61898;BME280;47850;50.274;18.908;2022-07-29T07:47:42;98275.34;;;24.21;45.15
61898;BME280;47850;50.274;18.908;2022-07-29T07:50:10;98274.64;;;24.28;44.92
61898;BME280;47850;50.274;18.908;2022-07-29T07:52:51;98277.43;;;24.31;45.23
61898;BME280;47850;50.274;18.908;2022-07-29T07:55:18;98272.73;;;24.32;45.24
61898;BME280;47850;50.274;18.908;2022-07-29T07:57:45;98274.69;;;24.34;45.80
61898;BME280;47850;50.274;18.908;2022-07-29T08:00:13;98269.48;;;24.40;45.92
61898;BME280;47850;50.274;18.908;2022-07-29T08:02:40;98269.23;;;24.39;45.47
61898;BME280;47850;50.274;18.908;2022-07-29T08:05:09;98272.72;;;24.32;45.55
61898;BME280;47850;50.274;18.908;2022-07-29T08:07:37;98278.80;;;24.29;46.00
61898;BME280;47850;50.274;18.908;2022-07-29T08:10:05;98276.99;;;24.26;45.94
61898;BME280;47850;50.274;18.908;2022-07-29T08:12:31;98274.23;;;24.22;45.61
61898;BME280;47850;50.274;18.908;2022-07-29T08:14:58;98279.83;;;24.19;45.73
61898;BME280;47850;50.274;18.908;2022-07-29T08:17:25;98275.77;;;24.16;45.98
61898;BME280;47850;50.274;18.908;2022-07-29T08:19:52;98275.98;;;24.22;46.41
61898;BME280;47850;50.274;18.908;2022-07-29T08:22:19;98276.42;;;24.35;46.37
61898;BME280;47850;50.274;18.908;2022-07-29T08:24:46;98278.50;;;24.47;45.64
61898;BME280;47850;50.274;18.908;2022-07-29T08:27:19;98273.22;;;24.59;45.61
61898;BME280;47850;50.274;18.908;2022-07-29T08:29:46;98269.19;;;24.68;45.31
61898;BME280;47850;50.274;18.908;2022-07-29T08:32:13;98276.16;;;24.82;45.47
61898;BME280;47850;50.274;18.908;2022-07-29T08:34:40;98273.98;;;24.90;44.87
61898;BME280;47850;50.274;18.908;2022-07-29T08:37:06;98270.95;;;25.00;45.01
61898;BME280;47850;50.274;18.908;2022-07-29T08:39:33;98281.36;;;25.10;44.82
61898;BME280;47850;50.274;18.908;2022-07-29T08:41:59;98286.20;;;25.20;44.59
61898;BME280;47850;50.274;18.908;2022-07-29T08:44:26;98286.92;;;25.33;44.46
61898;BME280;47850;50.274;18.908;2022-07-29T08:46:53;98285.73;;;25.49;43.98
61898;BME280;47850;50.274;18.908;2022-07-29T08:49:20;98287.23;;;25.65;44.03
61898;BME280;47850;50.274;18.908;2022-07-29T08:51:46;98281.28;;;25.79;43.58
61898;BME280;47850;50.274;18.908;2022-07-29T08:54:16;98282.86;;;25.98;42.94
61898;BME280;47850;50.274;18.908;2022-07-29T08:56:47;98283.36;;;26.20;42.85
61898;BME280;47850;50.274;18.908;2022-07-29T08:59:15;98280.02;;;26.40;42.27
61898;BME280;47850;50.274;18.908;2022-07-29T09:01:44;98277.81;;;26.58;41.66
61898;BME280;47850;50.274;18.908;2022-07-29T09:04:12;98274.42;;;26.76;41.36
61898;BME280;47850;50.274;18.908;2022-07-29T09:06:43;98273.17;;;26.93;41.08
61898;BME280;47850;50.274;18.908;2022-07-29T09:09:10;98274.63;;;27.13;40.91
61898;BME280;47850;50.274;18.908;2022-07-29T09:11:38;98273.52;;;27.33;40.57
61898;BME280;47850;50.274;18.908;2022-07-29T09:14:04;98268.69;;;27.44;40.08
61898;BME280;47850;50.274;18.908;2022-07-29T09:16:52;98265.91;;;27.43;39.48
61898;BME280;47850;50.274;18.908;2022-07-29T09:19:21;98261.89;;;27.39;39.88
61898;BME280;47850;50.274;18.908;2022-07-29T09:21:48;98267.15;;;27.36;40.12
61898;BME280;47850;50.274;18.908;2022-07-29T09:24:45;98266.71;;;27.37;39.60
61898;BME280;47850;50.274;18.908;2022-07-29T09:27:20;98263.20;;;27.47;39.71
61898;BME280;47850;50.274;18.908;2022-07-29T09:30:16;98256.30;;;27.63;39.39
61898;BME280;47850;50.274;18.908;2022-07-29T09:32:55;98255.02;;;27.85;39.57
61898;BME280;47850;50.274;18.908;2022-07-29T09:35:25;98254.17;;;28.01;38.82
61898;BME280;47850;50.274;18.908;2022-07-29T09:37:52;98252.12;;;28.15;38.54
61898;BME280;47850;50.274;18.908;2022-07-29T09:40:24;98247.92;;;28.23;37.86
61898;BME280;47850;50.274;18.908;2022-07-29T09:42:52;98247.00;;;28.28;37.88
61898;BME280;47850;50.274;18.908;2022-07-29T09:45:32;98246.41;;;28.43;38.26
61898;BME280;47850;50.274;18.908;2022-07-29T09:48:00;98251.02;;;28.57;37.72
61898;BME280;47850;50.274;18.908;2022-07-29T09:50:39;98249.13;;;28.62;37.49
61898;BME280;47850;50.274;18.908;2022-07-29T09:53:06;98249.23;;;28.58;37.00
61898;BME280;47850;50.274;18.908;2022-07-29T09:55:51;98245.04;;;28.53;37.14
61898;BME280;47850;50.274;18.908;2022-07-29T09:58:19;98248.18;;;28.52;37.32
61898;BME280;47850;50.274;18.908;2022-07-29T10:00:49;98246.61;;;28.60;37.68
61898;BME280;47850;50.274;18.908;2022-07-29T10:03:17;98246.77;;;28.72;37.13
61898;BME280;47850;50.274;18.908;2022-07-29T10:05:45;98246.73;;;28.81;37.19
61898;BME280;47850;50.274;18.908;2022-07-29T10:08:12;98244.33;;;28.96;37.29
61898;BME280;47850;50.274;18.908;2022-07-29T10:10:41;98239.90;;;29.14;36.42
61898;BME280;47850;50.274;18.908;2022-07-29T10:13:12;98238.50;;;29.36;36.33
61898;BME280;47850;50.274;18.908;2022-07-29T10:15:41;98229.84;;;29.59;35.79
61898;BME280;47850;50.274;18.908;2022-07-29T10:18:11;98229.05;;;29.74;35.17
61898;BME280;47850;50.274;18.908;2022-07-29T10:20:39;98229.92;;;29.85;34.91
61898;BME280;47850;50.274;18.908;2022-07-29T10:23:06;98228.38;;;29.86;34.91
61898;BME280;47850;50.274;18.908;2022-07-29T10:25:32;98229.63;;;29.66;34.10
61898;BME280;47850;50.274;18.908;2022-07-29T10:27:59;98224.11;;;29.46;34.17
61898;BME280;47850;50.274;18.908;2022-07-29T10:30:26;98221.30;;;29.37;34.57
61898;BME280;47850;50.274;18.908;2022-07-29T10:35:54;98219.48;;;29.69;34.57
61898;BME280;47850;50.274;18.908;2022-07-29T10:44:17;98216.30;;;30.12;33.84
61898;BME280;47850;50.274;18.908;2022-07-29T10:46:45;98219.23;;;30.29;33.58
61898;BME280;47850;50.274;18.908;2022-07-29T10:54:17;98226.87;;;30.71;32.81
61898;BME280;47850;50.274;18.908;2022-07-29T10:56:44;98215.35;;;30.83;32.68
61898;BME280;47850;50.274;18.908;2022-07-29T11:01:44;98221.02;;;30.75;32.25
61898;BME280;47850;50.274;18.908;2022-07-29T11:04:11;98221.17;;;30.70;32.00
61898;BME280;47850;50.274;18.908;2022-07-29T11:09:28;98220.96;;;30.76;32.20
61898;BME280;47850;50.274;18.908;2022-07-29T11:11:57;98218.36;;;30.75;32.08
61898;BME280;47850;50.274;18.908;2022-07-29T11:17:18;98212.19;;;30.46;32.27
61898;BME280;47850;50.274;18.908;2022-07-29T11:19:44;98212.18;;;30.26;32.48
61898;BME280;47850;50.274;18.908;2022-07-29T11:22:34;98207.48;;;30.18;32.68
61898;BME280;47850;50.274;18.908;2022-07-29T11:25:15;98207.67;;;30.16;32.86
61898;BME280;47850;50.274;18.908;2022-07-29T11:27:44;98207.34;;;30.15;32.81
61898;BME280;47850;50.274;18.908;2022-07-29T11:30:11;98207.39;;;30.05;33.08
61898;BME280;47850;50.274;18.908;2022-07-29T11:32:40;98207.78;;;30.03;33.00
61898;BME280;47850;50.274;18.908;2022-07-29T11:37:36;98210.31;;;30.36;33.01
61898;BME280;47850;50.274;18.908;2022-07-29T11:45:10;98210.80;;;31.21;32.06
61898;BME280;47850;50.274;18.908;2022-07-29T11:47:41;98206.71;;;31.55;31.27
61898;BME280;47850;50.274;18.908;2022-07-29T11:50:14;98202.83;;;31.89;30.79
61898;BME280;47850;50.274;18.908;2022-07-29T11:52:46;98201.63;;;32.19;30.47
61898;BME280;47850;50.274;18.908;2022-07-29T11:55:16;98202.31;;;32.57;30.13
61898;BME280;47850;50.274;18.908;2022-07-29T11:57:48;98200.25;;;32.70;29.39
61898;BME280;47850;50.274;18.908;2022-07-29T12:00:30;98201.08;;;32.50;29.15
61898;BME280;47850;50.274;18.908;2022-07-29T12:02:58;98201.98;;;32.12;29.16
61898;BME280;47850;50.274;18.908;2022-07-29T12:05:34;98200.73;;;31.91;29.78
61898;BME280;47850;50.274;18.908;2022-07-29T12:08:15;98203.64;;;31.66;29.79
61898;BME280;47850;50.274;18.908;2022-07-29T12:10:46;98211.55;;;31.31;30.61
61898;BME280;47850;50.274;18.908;2022-07-29T12:13:15;98209.20;;;31.02;31.01
61898;BME280;47850;50.274;18.908;2022-07-29T12:15:42;98214.13;;;30.83;31.37
61898;BME280;47850;50.274;18.908;2022-07-29T12:18:11;98216.22;;;30.69;31.06
61898;BME280;47850;50.274;18.908;2022-07-29T12:20:39;98213.46;;;30.53;31.62
61898;BME280;47850;50.274;18.908;2022-07-29T12:23:07;98213.54;;;30.33;31.80
61898;BME280;47850;50.274;18.908;2022-07-29T12:25:35;98212.05;;;30.16;32.01
61898;BME280;47850;50.274;18.908;2022-07-29T12:28:05;98207.77;;;30.03;32.47
61898;BME280;47850;50.274;18.908;2022-07-29T12:30:47;98209.02;;;29.87;32.83
61898;BME280;47850;50.274;18.908;2022-07-29T12:33:25;98209.89;;;29.75;33.53
61898;BME280;47850;50.274;18.908;2022-07-29T12:35:57;98211.52;;;29.73;33.82
61898;BME280;47850;50.274;18.908;2022-07-29T12:38:24;98211.42;;;29.73;33.44
61898;BME280;47850;50.274;18.908;2022-07-29T12:40:53;98208.16;;;29.80;33.18
61898;BME280;47850;50.274;18.908;2022-07-29T12:43:24;98204.16;;;29.87;32.66
61898;BME280;47850;50.274;18.908;2022-07-29T12:45:53;98202.20;;;29.97;32.49
61898;BME280;47850;50.274;18.908;2022-07-29T12:51:01;98189.64;;;30.30;32.05
61898;BME280;47850;50.274;18.908;2022-07-29T12:53:29;98190.66;;;30.57;31.93
61898;BME280;47850;50.274;18.908;2022-07-29T12:55:57;98188.58;;;30.82;31.99
61898;BME280;47850;50.274;18.908;2022-07-29T13:09:17;98182.64;;;31.44;30.70
61898;BME280;47850;50.274;18.908;2022-07-29T13:11:50;98179.59;;;31.65;30.58
61898;BME280;47850;50.274;18.908;2022-07-29T13:14:35;98171.36;;;31.88;29.56
61898;BME280;47850;50.274;18.908;2022-07-29T13:17:06;98168.16;;;32.11;29.67
61898;BME280;47850;50.274;18.908;2022-07-29T13:19:36;98165.48;;;32.30;29.27
61898;BME280;47850;50.274;18.908;2022-07-29T13:22:04;98162.59;;;32.43;28.74
61898;BME280;47850;50.274;18.908;2022-07-29T13:24:30;98154.73;;;32.57;28.68
61898;BME280;47850;50.274;18.908;2022-07-29T13:26:57;98145.95;;;32.87;28.74
61898;BME280;47850;50.274;18.908;2022-07-29T13:29:23;98142.60;;;33.11;28.15
61898;BME280;47850;50.274;18.908;2022-07-29T13:31:50;98145.31;;;33.27;27.82
61898;BME280;47850;50.274;18.908;2022-07-29T13:34:16;98136.52;;;34.04;26.88
61898;BME280;47850;50.274;18.908;2022-07-29T13:36:45;98139.23;;;35.34;25.81
61898;BME280;47850;50.274;18.908;2022-07-29T13:39:12;98136.08;;;36.12;24.77
61898;BME280;47850;50.274;18.908;2022-07-29T13:41:38;98126.75;;;36.48;24.25
61898;BME280;47850;50.274;18.908;2022-07-29T13:44:05;98122.95;;;36.68;23.89
61898;BME280;47850;50.274;18.908;2022-07-29T13:46:32;98116.05;;;37.30;23.16
61898;BME280;47850;50.274;18.908;2022-07-29T13:48:58;98117.39;;;37.77;22.32
61898;BME280;47850;50.274;18.908;2022-07-29T13:51:25;98115.09;;;38.28;21.59
61898;BME280;47850;50.274;18.908;2022-07-29T13:53:51;98108.56;;;38.19;21.84
61898;BME280;47850;50.274;18.908;2022-07-29T13:56:18;98104.15;;;39.07;21.16
61898;BME280;47850;50.274;18.908;2022-07-29T13:58:44;98102.39;;;39.94;20.12
61898;BME280;47850;50.274;18.908;2022-07-29T14:01:11;98101.27;;;40.55;19.42